createdAt,value
2022-12-17T00:02:18.725Z,68.60
2022-12-17T00:05:05.940Z,70.30
2022-12-17T00:07:52.908Z,69.00
2022-12-17T00:10:40.322Z,73.50
2022-12-17T00:13:38.338Z,76.40
2022-12-17T00:16:26.784Z,74.60
2022-12-17T00:19:13.724Z,70.30
2022-12-17T00:22:00.744Z,73.60
2022-12-17T00:24:47.889Z,72.50
2022-12-17T00:27:34.809Z,75.60
2022-12-17T00:30:21.998Z,75.10
2022-12-17T00:33:10.036Z,70.30
2022-12-17T00:36:00.157Z,72.70
2022-12-17T00:38:48.708Z,70.00
2022-12-17T00:41:35.582Z,65.40
2022-12-17T00:44:22.790Z,67.30
2022-12-17T00:47:11.014Z,72.50
2022-12-17T00:49:57.707Z,61.90
2022-12-17T00:52:45.649Z,54.60
2022-12-17T00:55:33.083Z,47.40
2022-12-17T00:58:19.965Z,45.50
2022-12-17T01:01:07.925Z,39.10
2022-12-17T01:03:54.971Z,42.90
2022-12-17T01:06:43.850Z,42.80
2022-12-17T01:09:30.973Z,38.40
2022-12-17T01:12:18.183Z,37.90
2022-12-17T01:15:04.969Z,44.40
2022-12-17T01:17:51.903Z,42.00
2022-12-17T01:20:39.070Z,39.90
2022-12-17T01:23:27.157Z,44.00
2022-12-17T01:26:15.903Z,37.10
2022-12-17T01:29:03.124Z,36.50
2022-12-17T01:31:49.882Z,34.30
2022-12-17T01:34:37.330Z,29.60
2022-12-17T01:37:24.298Z,32.80
2022-12-17T01:40:13.173Z,29.50
2022-12-17T01:43:02.389Z,27.60
2022-12-17T01:46:05.740Z,20.80
2022-12-17T01:49:00.374Z,20.80
2022-12-17T01:51:49.684Z,18.60
2022-12-17T01:54:38.172Z,17.60
2022-12-17T01:57:26.624Z,18.80
2022-12-17T02:00:23.737Z,18.40
2022-12-17T02:03:10.961Z,19.70
2022-12-17T02:06:14.238Z,19.40
2022-12-17T02:09:13.464Z,20.90
2022-12-17T02:12:34.627Z,18.90
2022-12-17T02:15:24.937Z,18.00
2022-12-17T02:18:16.968Z,20.20
2022-12-17T02:21:07.675Z,17.90
2022-12-17T02:24:20.897Z,17.90
2022-12-17T02:27:15.212Z,20.90
2022-12-17T02:30:09.994Z,18.90
2022-12-17T02:33:01.777Z,19.10
2022-12-17T02:35:52.538Z,19.30
2022-12-17T02:38:42.781Z,16.60
2022-12-17T02:41:55.146Z,17.10
2022-12-17T02:44:43.528Z,16.40
2022-12-17T02:47:32.954Z,16.70
2022-12-17T02:50:20.130Z,16.10
2022-12-17T03:03:37.318Z,15.90
2022-12-17T03:06:24.938Z,17.50
2022-12-17T03:09:12.049Z,17.40
2022-12-17T03:11:59.164Z,17.10
2022-12-17T03:14:46.145Z,15.10
2022-12-17T03:17:33.763Z,15.80
2022-12-17T03:20:20.979Z,16.60
2022-12-17T03:23:08.135Z,16.00
2022-12-17T03:25:55.218Z,13.70
2022-12-17T03:28:42.329Z,14.10
2022-12-17T03:31:29.281Z,15.70
2022-12-17T03:34:16.656Z,14.40
2022-12-17T03:37:03.369Z,15.90
2022-12-17T03:39:51.051Z,13.30
2022-12-17T03:42:38.102Z,14.10
2022-12-17T03:45:25.773Z,16.20
2022-12-17T03:48:23.408Z,14.90
2022-12-17T03:51:12.045Z,14.40
2022-12-17T03:53:59.715Z,15.40
2022-12-17T03:56:47.569Z,17.90
2022-12-17T03:59:34.623Z,18.20
2022-12-17T04:02:22.122Z,18.90
2022-12-17T04:05:09.324Z,13.50
2022-12-17T04:07:56.860Z,15.60
2022-12-17T04:10:43.901Z,16.60
2022-12-17T04:13:33.675Z,16.40
2022-12-17T04:16:24.631Z,15.10
2022-12-17T04:19:12.084Z,17.00
2022-12-17T04:22:18.615Z,16.70
2022-12-17T04:25:05.487Z,15.80
2022-12-17T04:27:52.690Z,16.40
2022-12-17T04:30:39.793Z,15.40
2022-12-17T04:33:26.950Z,17.20
2022-12-17T04:36:14.259Z,18.90
2022-12-17T04:39:01.670Z,17.20
2022-12-17T04:41:49.047Z,16.90
2022-12-17T04:44:36.241Z,19.00
2022-12-17T04:47:23.302Z,17.20
2022-12-17T04:50:10.128Z,17.90
2022-12-17T04:52:56.963Z,15.10
2022-12-17T04:55:43.846Z,17.00
2022-12-17T04:58:31.267Z,16.60
2022-12-17T05:01:18.416Z,15.70
2022-12-17T05:04:06.010Z,15.70
2022-12-17T05:06:52.890Z,17.90
2022-12-17T05:09:40.059Z,16.00
2022-12-17T05:12:27.037Z,15.70
2022-12-17T05:15:13.746Z,16.30
2022-12-17T05:18:00.992Z,15.20
2022-12-17T05:20:47.954Z,15.50
2022-12-17T05:23:35.160Z,17.80
2022-12-17T05:26:38.793Z,16.60
2022-12-17T05:29:25.982Z,19.70
2022-12-17T05:32:13.068Z,16.80
2022-12-17T05:35:00.202Z,15.40
2022-12-17T05:37:47.697Z,16.50
2022-12-17T05:40:34.700Z,18.70
2022-12-17T05:43:24.684Z,16.80
2022-12-17T05:46:11.947Z,19.30
2022-12-17T05:48:59.112Z,18.00
2022-12-17T05:51:46.615Z,18.20
2022-12-17T05:54:33.950Z,14.70
2022-12-17T05:57:21.343Z,16.40
2022-12-17T06:00:08.662Z,14.90
2022-12-17T06:03:01.768Z,14.20
2022-12-17T06:05:49.432Z,15.70
2022-12-17T06:08:36.695Z,17.40
2022-12-17T06:11:24.018Z,17.10
2022-12-17T06:14:10.904Z,14.60
2022-12-17T06:16:58.180Z,13.90
2022-12-17T06:19:45.438Z,13.80
2022-12-17T06:22:32.625Z,17.70
2022-12-17T06:25:19.683Z,16.30
2022-12-17T06:28:07.030Z,16.30
2022-12-17T06:30:54.310Z,17.90
2022-12-17T06:33:41.822Z,15.20
2022-12-17T06:36:29.150Z,15.40
2022-12-17T06:39:16.483Z,16.70
2022-12-17T06:42:04.651Z,15.00
2022-12-17T06:44:52.342Z,15.00
2022-12-17T06:47:39.787Z,16.20
2022-12-17T06:50:27.490Z,15.40
2022-12-17T06:53:22.248Z,16.90
2022-12-17T06:56:10.449Z,17.50
2022-12-17T06:58:57.657Z,16.90
2022-12-17T07:01:45.949Z,18.70
2022-12-17T07:04:33.462Z,22.90
2022-12-17T07:07:20.933Z,22.30
2022-12-17T07:10:13.873Z,23.40
2022-12-17T07:13:01.626Z,19.20
2022-12-17T07:15:48.582Z,23.80
2022-12-17T07:18:36.323Z,20.60
2022-12-17T07:21:23.758Z,22.20
2022-12-17T07:24:11.009Z,24.60
2022-12-17T07:26:58.123Z,21.70
2022-12-17T07:29:45.629Z,24.20
2022-12-17T07:32:32.654Z,26.80
2022-12-17T07:35:20.732Z,27.40
2022-12-17T07:38:08.152Z,29.30
2022-12-17T07:40:55.395Z,27.30
2022-12-17T07:43:42.616Z,23.40
2022-12-17T07:46:29.849Z,25.20
2022-12-17T07:49:20.139Z,30.70
2022-12-17T07:54:57.624Z,29.00
2022-12-17T07:57:45.273Z,35.40
2022-12-17T08:00:32.988Z,28.50
2022-12-17T08:03:20.462Z,27.50
2022-12-17T08:06:07.810Z,28.90
2022-12-17T08:08:55.010Z,27.50
2022-12-17T08:11:41.977Z,29.40
2022-12-17T08:14:29.207Z,31.30
2022-12-17T08:17:16.331Z,32.50
2022-12-17T08:20:04.101Z,34.80
2022-12-17T08:22:51.262Z,31.90
2022-12-17T08:25:38.512Z,35.30
2022-12-17T08:28:53.367Z,37.50
2022-12-17T08:31:42.457Z,43.70
2022-12-17T08:34:29.681Z,42.30
2022-12-17T08:37:17.042Z,39.70
2022-12-17T08:40:03.983Z,42.60
2022-12-17T08:42:51.313Z,47.50
2022-12-17T08:45:38.860Z,41.30
2022-12-17T08:48:27.526Z,36.20
2022-12-17T08:51:14.747Z,33.00
2022-12-17T08:54:02.105Z,30.50
2022-12-17T08:56:49.457Z,31.70
2022-12-17T08:59:36.854Z,29.80
2022-12-17T09:02:24.378Z,32.60
2022-12-17T09:05:11.636Z,31.50
2022-12-17T09:08:07.847Z,33.20
2022-12-17T09:10:55.305Z,33.80
2022-12-17T09:13:42.594Z,34.90
2022-12-17T09:16:29.809Z,31.60
2022-12-17T09:19:16.815Z,33.70
2022-12-17T09:22:04.318Z,35.10
2022-12-17T09:24:51.442Z,32.40
2022-12-17T09:27:38.642Z,33.50
2022-12-17T09:30:26.554Z,32.30
2022-12-17T09:33:14.159Z,31.20
2022-12-17T09:36:01.430Z,33.40
2022-12-17T09:38:49.017Z,33.40
2022-12-17T09:42:23.788Z,32.10
2022-12-17T09:45:27.844Z,34.30
2022-12-17T09:48:36.587Z,30.90
2022-12-17T09:51:24.001Z,30.40
2022-12-17T09:54:12.877Z,25.80
2022-12-17T09:57:02.325Z,26.30
2022-12-17T09:59:53.569Z,24.70
2022-12-17T10:02:46.238Z,24.80
2022-12-17T10:05:47.740Z,26.90
2022-12-17T10:08:39.262Z,27.50
2022-12-17T10:11:46.286Z,29.40
2022-12-17T10:14:38.437Z,26.60
2022-12-17T10:17:39.913Z,32.70
2022-12-17T10:20:51.180Z,36.90
2022-12-17T10:23:43.382Z,30.60
2022-12-17T10:26:39.339Z,31.60
2022-12-17T10:29:42.459Z,37.90
2022-12-17T10:32:32.975Z,35.90
2022-12-17T10:35:33.126Z,35.50
2022-12-17T10:38:29.061Z,34.00
2022-12-17T10:41:16.345Z,41.90
2022-12-17T10:44:04.071Z,44.20
2022-12-17T10:46:53.402Z,42.60
2022-12-17T10:49:43.655Z,47.40
2022-12-17T10:52:49.415Z,47.20
2022-12-17T10:55:48.622Z,50.60
2022-12-17T10:58:38.605Z,50.60
2022-12-17T11:01:30.681Z,55.00
2022-12-17T11:04:18.367Z,50.90
2022-12-17T11:07:12.012Z,52.60
2022-12-17T11:10:09.960Z,51.00
2022-12-17T11:13:02.657Z,45.90
2022-12-17T11:16:07.962Z,44.90
2022-12-17T11:18:58.402Z,43.40
2022-12-17T11:21:51.994Z,42.60
2022-12-17T11:24:46.612Z,37.80
2022-12-17T11:27:38.581Z,30.60
2022-12-17T11:30:33.772Z,30.70
2022-12-17T11:33:56.571Z,30.30
2022-12-17T11:36:53.140Z,29.30
2022-12-17T11:39:53.275Z,30.50
2022-12-17T11:43:06.604Z,30.20
2022-12-17T11:49:29.381Z,30.60
2022-12-17T11:52:33.277Z,30.70
2022-12-17T11:55:20.825Z,32.00
2022-12-17T11:58:20.284Z,30.30
2022-12-17T12:01:21.046Z,33.40
2022-12-17T12:04:17.158Z,31.10
2022-12-17T12:07:22.577Z,30.10
2022-12-17T12:10:39.631Z,29.10
2022-12-17T12:13:37.517Z,28.00
2022-12-17T12:16:42.069Z,28.80
2022-12-17T12:19:48.940Z,26.90
2022-12-17T12:22:50.365Z,28.10
2022-12-17T12:25:43.527Z,28.30
2022-12-17T12:28:39.949Z,30.30
2022-12-17T12:31:36.925Z,29.80
2022-12-17T12:34:33.127Z,33.90
2022-12-17T12:37:22.625Z,30.00
2022-12-17T12:40:20.932Z,31.40
2022-12-17T12:43:19.417Z,32.00
2022-12-17T12:46:28.075Z,35.60
2022-12-17T12:49:36.315Z,32.90
2022-12-17T12:52:23.872Z,32.60
2022-12-17T12:55:14.206Z,34.40
2022-12-17T12:58:17.660Z,34.40
2022-12-17T13:01:08.661Z,34.90
2022-12-17T13:04:01.893Z,35.70
2022-12-17T13:06:45.272Z,36.20
2022-12-17T13:09:17.053Z,40.10
2022-12-17T13:11:55.081Z,35.60
2022-12-17T13:14:47.496Z,39.10
2022-12-17T13:17:16.505Z,33.00
2022-12-17T13:19:47.475Z,36.40
2022-12-17T13:22:23.319Z,45.80
2022-12-17T13:24:55.578Z,41.20
2022-12-17T13:27:36.002Z,41.70
2022-12-17T13:30:22.135Z,45.00
2022-12-17T13:33:21.514Z,51.00
2022-12-17T13:35:56.043Z,46.10
2022-12-17T13:38:42.375Z,46.30
2022-12-17T13:41:17.027Z,51.10
2022-12-17T13:43:48.650Z,49.80
2022-12-17T13:46:20.787Z,48.90
2022-12-17T13:49:00.816Z,49.40
2022-12-17T13:51:32.513Z,47.80
2022-12-17T13:54:03.920Z,46.10
2022-12-17T13:56:37.569Z,49.30
2022-12-17T13:59:09.591Z,42.70
2022-12-17T14:01:54.955Z,47.30
2022-12-17T14:04:27.938Z,47.00
2022-12-17T14:07:04.030Z,47.60
2022-12-17T14:09:44.389Z,46.10
2022-12-17T14:12:25.259Z,41.60
2022-12-17T14:14:57.521Z,43.20
2022-12-17T14:17:38.478Z,42.70
2022-12-17T14:20:13.122Z,37.80
2022-12-17T14:22:51.323Z,39.40
2022-12-17T14:25:25.336Z,40.00
2022-12-17T14:28:00.637Z,36.40
2022-12-17T14:30:32.252Z,37.50
2022-12-17T14:33:01.072Z,36.40
2022-12-17T14:35:40.025Z,31.20
2022-12-17T14:38:36.992Z,35.30
2022-12-17T14:41:33.392Z,34.80
2022-12-17T14:44:04.234Z,39.00
2022-12-17T14:46:35.002Z,35.80
2022-12-17T14:49:13.220Z,33.70
2022-12-17T14:51:43.319Z,32.90
2022-12-17T14:54:14.899Z,34.40
2022-12-17T14:56:45.093Z,35.40
2022-12-17T14:59:26.305Z,35.70
2022-12-17T15:01:56.306Z,30.30
2022-12-17T15:04:25.520Z,35.20
2022-12-17T15:06:55.593Z,37.20
2022-12-17T15:09:24.212Z,36.80
2022-12-17T15:11:52.885Z,34.90
2022-12-17T15:14:21.401Z,33.30
2022-12-17T15:16:49.970Z,35.60
2022-12-17T15:19:18.579Z,31.50
2022-12-17T15:21:47.373Z,31.10
2022-12-17T15:24:20.321Z,33.70
2022-12-17T15:26:49.166Z,32.90
2022-12-17T15:29:17.685Z,30.60
2022-12-17T15:31:46.457Z,41.10
2022-12-17T15:34:15.519Z,36.60
2022-12-17T15:36:44.006Z,36.80
2022-12-17T15:39:12.859Z,30.20
2022-12-17T15:41:59.947Z,34.80
2022-12-17T15:44:28.581Z,33.60
2022-12-17T15:46:58.436Z,33.70
2022-12-17T15:49:26.955Z,34.10
2022-12-17T15:51:55.683Z,34.00
2022-12-17T15:54:25.540Z,32.60
2022-12-17T15:56:55.268Z,32.80
2022-12-17T15:59:24.522Z,33.40
2022-12-17T16:01:53.475Z,32.10
2022-12-17T16:04:25.119Z,31.20
2022-12-17T16:06:54.640Z,36.20
2022-12-17T16:09:25.519Z,33.10
2022-12-17T16:11:57.599Z,31.10
2022-12-17T16:14:26.291Z,35.20
2022-12-17T16:16:54.799Z,33.70
2022-12-17T16:19:23.604Z,31.80
2022-12-17T16:21:52.233Z,34.50
2022-12-17T16:24:21.510Z,33.20
2022-12-17T16:26:50.194Z,40.80
2022-12-17T16:29:18.892Z,37.40
2022-12-17T16:31:48.931Z,36.30
2022-12-17T16:34:17.511Z,37.20
2022-12-17T16:36:46.150Z,43.40
2022-12-17T16:39:17.191Z,53.40
2022-12-17T16:41:46.752Z,47.60
2022-12-17T16:44:15.355Z,46.90
2022-12-17T16:46:44.332Z,43.30
2022-12-17T16:49:18.336Z,47.60
2022-12-17T16:51:49.873Z,46.10
2022-12-17T16:54:21.665Z,50.30
2022-12-17T16:56:50.487Z,52.10
2022-12-17T16:59:19.621Z,50.70
2022-12-17T17:01:50.151Z,53.70
2022-12-17T17:04:21.412Z,53.10
2022-12-17T17:06:52.559Z,52.20
2022-12-17T17:09:22.593Z,49.10
2022-12-17T17:11:52.403Z,47.70
2022-12-17T17:14:21.210Z,51.70
2022-12-17T17:16:49.928Z,54.00
2022-12-17T17:19:19.805Z,52.50
2022-12-17T17:21:51.839Z,54.50
2022-12-17T17:24:23.892Z,57.60
2022-12-17T17:26:53.715Z,58.80
2022-12-17T17:29:22.512Z,68.10
2022-12-17T17:34:40.054Z,66.80
2022-12-17T17:37:09.050Z,75.00
2022-12-17T17:39:37.626Z,63.10
2022-12-17T17:42:06.695Z,57.50
2022-12-17T17:44:35.916Z,53.10
2022-12-17T17:47:04.841Z,52.80
2022-12-17T17:49:33.525Z,52.10
2022-12-17T17:52:10.850Z,51.30
2022-12-17T17:54:40.358Z,51.40
2022-12-17T17:57:09.808Z,53.00
2022-12-17T17:59:39.836Z,47.80
2022-12-17T18:02:11.074Z,50.50
2022-12-17T18:04:40.224Z,51.20
2022-12-17T18:07:25.318Z,46.70
2022-12-17T18:09:55.984Z,51.80
2022-12-17T18:12:43.862Z,47.60
2022-12-17T18:15:15.230Z,51.60
2022-12-17T18:17:47.613Z,57.60
2022-12-17T18:20:16.782Z,60.80
2022-12-17T18:22:46.795Z,52.20
2022-12-17T18:25:18.595Z,53.50
2022-12-17T18:27:47.389Z,49.50
2022-12-17T18:30:16.485Z,50.90
2022-12-17T18:32:49.049Z,49.80
2022-12-17T18:35:17.643Z,60.30
2022-12-17T18:37:46.228Z,57.50
2022-12-17T18:40:14.702Z,67.10
2022-12-17T18:43:02.182Z,59.00
2022-12-17T18:45:30.779Z,55.70
2022-12-17T18:47:59.679Z,55.00
2022-12-17T18:50:28.192Z,53.40
2022-12-17T18:52:57.032Z,54.70
2022-12-17T18:55:25.642Z,54.50
2022-12-17T18:57:54.309Z,56.10
2022-12-17T19:00:23.113Z,51.70
2022-12-17T19:02:51.824Z,59.50
2022-12-17T19:05:20.758Z,56.10
2022-12-17T19:07:49.320Z,52.00
2022-12-17T19:10:17.980Z,54.00
2022-12-17T19:12:46.570Z,53.00
2022-12-17T19:15:15.384Z,56.60
2022-12-17T19:17:44.043Z,52.40
2022-12-17T19:20:12.559Z,54.10
2022-12-17T19:22:41.138Z,55.20
2022-12-17T19:25:10.368Z,50.10
2022-12-17T19:27:39.003Z,59.60
2022-12-17T19:30:08.534Z,56.20
2022-12-17T19:32:37.415Z,55.80
2022-12-17T19:35:06.266Z,59.90
2022-12-17T19:37:34.839Z,58.60
2022-12-17T19:40:04.002Z,57.20
2022-12-17T19:42:37.285Z,56.20
2022-12-17T19:45:07.376Z,55.50
2022-12-17T19:47:36.007Z,53.60
2022-12-17T19:50:06.257Z,52.80
2022-12-17T19:52:35.318Z,57.60
2022-12-17T19:55:06.147Z,60.70
2022-12-17T19:57:35.060Z,55.70
2022-12-17T20:00:04.264Z,57.00
2022-12-17T20:02:41.914Z,57.60
2022-12-17T20:05:11.102Z,51.70
2022-12-17T20:07:40.345Z,55.30
2022-12-17T20:10:09.093Z,49.40
2022-12-17T20:12:37.773Z,53.50
2022-12-17T20:15:06.683Z,54.60
2022-12-17T20:17:35.389Z,52.80
2022-12-17T20:20:04.806Z,52.40
2022-12-17T20:22:33.590Z,53.70
2022-12-17T20:25:04.927Z,52.60
2022-12-17T20:27:33.834Z,55.00
2022-12-17T20:30:02.525Z,52.00
2022-12-17T20:32:31.291Z,51.30
2022-12-17T20:35:00.059Z,47.70
2022-12-17T20:37:28.867Z,52.00
2022-12-17T20:39:57.463Z,62.30
2022-12-17T20:42:26.032Z,65.90
2022-12-17T20:44:54.634Z,57.70
2022-12-17T20:47:23.263Z,59.60
2022-12-17T20:49:52.231Z,70.50
2022-12-17T20:52:21.181Z,80.50
2022-12-17T20:54:50.554Z,74.40
2022-12-17T20:57:19.547Z,65.30
2022-12-17T20:59:48.566Z,60.70
2022-12-17T21:02:17.890Z,54.30
2022-12-17T21:04:48.211Z,59.50
2022-12-17T21:07:17.238Z,59.10
2022-12-17T21:09:46.308Z,52.30
2022-12-17T21:12:15.415Z,56.00
2022-12-17T21:14:45.000Z,57.20
2022-12-17T21:17:15.286Z,58.10
2022-12-17T21:19:44.667Z,53.80
2022-12-17T21:22:13.732Z,56.20
2022-12-17T21:24:42.912Z,61.50
2022-12-17T21:27:15.054Z,61.00
2022-12-17T21:29:44.808Z,57.00
2022-12-17T21:32:14.115Z,58.70
2022-12-17T21:34:43.808Z,50.90
2022-12-17T21:37:13.988Z,51.90
2022-12-17T21:39:43.415Z,56.80
2022-12-17T21:42:32.044Z,52.90
2022-12-17T21:45:01.537Z,59.20
2022-12-17T21:47:30.752Z,55.70
2022-12-17T21:49:59.900Z,55.30
2022-12-17T21:52:29.010Z,60.10
2022-12-17T21:54:58.014Z,57.30
2022-12-17T21:57:27.020Z,52.20
2022-12-17T21:59:56.421Z,48.30
2022-12-17T22:02:25.869Z,43.00
2022-12-17T22:04:55.330Z,41.80
2022-12-17T22:07:45.589Z,43.50
2022-12-17T22:10:34.179Z,41.20
2022-12-17T22:13:24.685Z,47.90
2022-12-17T22:15:54.188Z,47.20
2022-12-17T22:18:23.686Z,44.60
2022-12-17T22:21:02.926Z,47.80
2022-12-17T22:23:32.265Z,46.00
2022-12-17T22:26:01.680Z,46.90
2022-12-17T22:28:30.952Z,43.30
2022-12-17T22:31:23.927Z,42.40
2022-12-17T22:34:04.038Z,45.20
2022-12-17T22:39:19.252Z,47.20
2022-12-17T22:42:54.852Z,44.90
2022-12-17T22:44:40.581Z,44.10
2022-12-17T22:45:29.820Z,41.50
2022-12-17T22:47:59.030Z,45.00
2022-12-17T22:50:29.759Z,50.00
2022-12-17T22:53:06.110Z,44.30
2022-12-17T22:55:35.352Z,41.60
2022-12-17T22:58:04.476Z,43.20
2022-12-17T23:00:35.033Z,41.40
2022-12-17T23:03:04.452Z,37.40
2022-12-17T23:05:33.649Z,38.50
2022-12-17T23:08:02.428Z,38.70
2022-12-17T23:10:31.013Z,39.50
2022-12-17T23:12:59.544Z,36.00
2022-12-17T23:15:36.605Z,37.60
2022-12-17T23:18:07.014Z,40.50
2022-12-17T23:20:35.963Z,38.00
2022-12-17T23:23:04.566Z,38.50
2022-12-17T23:25:33.469Z,37.60
2022-12-17T23:28:02.090Z,35.20
2022-12-17T23:30:30.637Z,34.80
2022-12-17T23:32:59.202Z,37.10
2022-12-17T23:35:28.106Z,35.70
2022-12-17T23:37:56.717Z,32.30
2022-12-17T23:40:25.997Z,35.10
2022-12-17T23:42:57.502Z,34.50
2022-12-17T23:45:26.430Z,35.20
2022-12-17T23:47:57.667Z,40.10
2022-12-17T23:50:26.232Z,39.70
2022-12-17T23:52:55.055Z,40.60
2022-12-17T23:55:23.536Z,41.20
2022-12-17T23:57:56.737Z,39.30
